Partly Cloudy Current Weather (METAR) For Innsbruck - Kranebitten Airport

All times on the weather descriptions are local

Observed at 16:50 - (7 mins ago)

Partly Cloudy

19°C

Partly Cloudy
Clouds: Few Clouds at 6,000ft, Scattered Clouds at 7,000ft
Wind: 050° at 10 knots, varying from 010° to 080
Visibility: Greater than 10km
QNH: 1016
Dew Point: 7°C
Runway in Use: Runway 08

Sunrise Today: 06:09
Sunset Today: 20:16

Forecast Weather (TAF) For Innsbruck - Kranebitten Airport

Issued at 02:00 - (6 days 9 hrs ago)


Runway in Use: Unable to determine, wind is clam

Forecast valid until 02:00 on Wednesday

METAR/TAF RAW METAR / TAF

LOWI 231450Z 05010KT 010V080 9999 FEW060TCU SCT070 19/07 Q1016 NOSIG

Weather Widget

Put weather from any of our airports on your website with our weather widget.

Find Another Search

Airport Search


Please Wait Please Wait - Loading
Close
Close

Login

Username:

Password:

Remember Me:

Remember me on this computer

Forgotten your password? Get a reset password sent to your registered e-mail address

Close

User Private Message

Subject:

Message: